Time;durP1;ratioP1;P1;durP2;ratioP2;P2;SDS_P1;SDS_P2;PMS_P1;PMS_P2;Temp;Humidity;BMP_temperature;BMP_pressure;BME280_temperature;BME280_humidity;BME280_pressure;Samples;Min_cycle;Max_cycle;Signal;HPM_P1;HPM_P2
2021/06/15 00:00:57;;;;;;;2.85;1.80;;;24.80;50.20;;;;;;5015439;28;20371;-47
2021/06/15 00:03:23;;;;;;;3.60;1.63;;;24.90;50.20;;;;;;5016994;28;20399;-47
2021/06/15 00:05:49;;;;;;;3.00;1.77;;;24.80;50.10;;;;;;5013439;28;20041;-47
2021/06/15 00:08:15;;;;;;;2.65;1.75;;;24.80;50.10;;;;;;5012486;28;20489;-45
2021/06/15 00:10:42;;;;;;;2.42;1.98;;;24.80;50.10;;;;;;5016414;28;20021;-50
2021/06/15 00:13:09;;;;;;;2.55;1.35;;;24.90;50.20;;;;;;5011895;28;20045;-45
2021/06/15 00:15:37;;;;;;;2.70;1.65;;;24.80;50.10;;;;;;5012947;28;20113;-48
2021/06/15 00:18:03;;;;;;;2.45;1.75;;;24.90;50.20;;;;;;5007628;28;20030;-50
2021/06/15 00:20:29;;;;;;;2.50;1.58;;;24.90;50.20;;;;;;5013283;28;20040;-49
2021/06/15 00:22:55;;;;;;;2.97;1.67;;;24.90;50.20;;;;;;5012819;28;20057;-50
2021/06/15 00:25:21;;;;;;;2.63;1.50;;;24.90;50.20;;;;;;5011454;28;20057;-45
2021/06/15 00:27:48;;;;;;;2.45;1.60;;;24.90;50.20;;;;;;5011297;28;20026;-46
2021/06/15 00:30:17;;;;;;;2.80;1.50;;;24.90;50.20;;;;;;5011698;28;20042;-45
2021/06/15 00:32:45;;;;;;;3.63;1.77;;;24.80;50.20;;;;;;5011817;28;20072;-46
2021/06/15 00:35:11;;;;;;;4.15;1.80;;;24.90;50.30;;;;;;5011311;28;20033;-46
2021/06/15 00:37:37;;;;;;;2.58;1.80;;;24.80;50.20;;;;;;5012209;28;20030;-49
2021/06/15 00:40:04;;;;;;;5.00;1.95;;;24.80;50.10;;;;;;5012055;28;20440;-45
2021/06/15 00:42:29;;;;;;;2.58;1.70;;;24.80;50.00;;;;;;5012125;28;20041;-49
2021/06/15 00:44:55;;;;;;;2.58;1.75;;;24.80;50.10;;;;;;5012163;28;20037;-45
2021/06/15 00:47:22;;;;;;;2.15;1.58;;;24.80;50.00;;;;;;5011375;28;20639;-49
2021/06/15 00:49:48;;;;;;;3.25;1.65;;;24.80;50.10;;;;;;5012121;28;20038;-49
2021/06/15 00:52:14;;;;;;;3.33;1.80;;;24.80;50.00;;;;;;5010687;28;20042;-52
2021/06/15 00:54:43;;;;;;;4.47;1.70;;;24.80;50.00;;;;;;5012124;28;20056;-48
2021/06/15 00:57:18;;;;;;;2.42;1.63;;;24.80;50.10;;;;;;5009955;28;20041;-50
2021/06/15 00:59:44;;;;;;;2.35;1.70;;;24.80;50.10;;;;;;5012311;28;20068;-50
2021/06/15 01:02:11;;;;;;;3.80;1.88;;;24.80;50.10;;;;;;5011819;28;20511;-48
2021/06/15 01:04:37;;;;;;;2.38;1.60;;;24.80;50.10;;;;;;5027414;28;20357;-47
2021/06/15 01:07:32;;;;;;;2.08;1.58;;;24.80;50.10;;;;;;5008542;28;20038;-45
2021/06/15 01:10:15;;;;;;;4.55;1.52;;;24.80;50.10;;;;;;5009455;28;20053;-45
2021/06/15 01:13:08;;;;;;;2.17;1.60;;;24.80;50.10;;;;;;5010889;28;20411;-45
2021/06/15 01:15:48;;;;;;;2.17;1.65;;;24.80;50.20;;;;;;5011973;28;20034;-45
2021/06/15 01:18:19;;;;;;;4.85;1.50;;;24.80;50.20;;;;;;5010978;28;20048;-45
2021/06/15 01:20:49;;;;;;;2.72;1.88;;;24.80;50.20;;;;;;5011407;28;20044;-46
2021/06/15 01:23:49;;;;;;;2.05;1.55;;;24.80;50.30;;;;;;5010023;28;20034;-45
2021/06/15 01:26:58;;;;;;;2.30;1.60;;;24.80;50.30;;;;;;5010246;28;20418;-45
2021/06/15 01:29:26;;;;;;;2.50;1.55;;;24.80;50.30;;;;;;5010883;28;20049;-45
2021/06/15 01:31:58;;;;;;;2.90;1.55;;;24.80;50.30;;;;;;5011245;28;20032;-45
2021/06/15 01:34:34;;;;;;;2.03;1.40;;;24.80;50.30;;;;;;5010721;28;20030;-45
2021/06/15 01:37:10;;;;;;;3.30;1.73;;;24.80;50.30;;;;;;5011414;28;20061;-45
2021/06/15 01:40:01;;;;;;;2.45;1.58;;;24.80;50.20;;;;;;5011324;28;20036;-45
2021/06/15 01:42:38;;;;;;;2.60;1.65;;;24.80;50.30;;;;;;5010557;28;20029;-44
2021/06/15 01:45:24;;;;;;;3.85;1.80;;;24.80;50.20;;;;;;5010245;28;20029;-44
2021/06/15 01:48:40;;;;;;;3.78;1.77;;;24.80;50.30;;;;;;5011406;28;20434;-46
2021/06/15 01:51:08;;;;;;;2.30;1.70;;;24.70;50.30;;;;;;5005938;28;20053;-45
2021/06/15 01:53:35;;;;;;;1.92;1.48;;;24.70;50.30;;;;;;5015109;28;20026;-46
2021/06/15 01:56:04;;;;;;;2.30;1.45;;;24.80;50.40;;;;;;5011356;28;20034;-45
2021/06/15 01:58:33;;;;;;;3.10;1.65;;;24.70;50.30;;;;;;5010904;28;20088;-45
2021/06/15 02:00:59;;;;;;;3.33;1.50;;;24.80;50.40;;;;;;5011583;28;20030;-44
2021/06/15 02:03:26;;;;;;;2.92;1.92;;;24.80;50.40;;;;;;5010276;28;20075;-45
2021/06/15 02:05:58;;;;;;;2.83;1.55;;;24.80;50.40;;;;;;5011764;28;20038;-45
2021/06/15 02:08:38;;;;;;;1.80;1.60;;;24.70;50.40;;;;;;5006625;28;20222;-45
2021/06/15 02:11:04;;;;;;;2.35;1.40;;;24.80;50.50;;;;;;5015280;28;20026;-45
2021/06/15 02:13:32;;;;;;;3.00;1.60;;;24.80;50.50;;;;;;5014307;28;20041;-45
2021/06/15 02:16:00;;;;;;;1.75;1.40;;;24.70;50.50;;;;;;5017437;28;20025;-45
2021/06/15 02:18:30;;;;;;;1.95;1.60;;;24.70;50.50;;;;;;5014254;28;20105;-45
2021/06/15 02:21:00;;;;;;;3.60;1.70;;;24.70;50.50;;;;;;5015384;28;20065;-45
2021/06/15 02:23:27;;;;;;;2.28;1.40;;;24.60;50.00;;;;;;5014186;28;20703;-45
2021/06/15 02:25:58;;;;;;;2.55;1.50;;;24.60;50.30;;;;;;5015220;28;20065;-46
2021/06/15 02:28:24;;;;;;;3.50;1.70;;;24.60;50.30;;;;;;5014026;28;20089;-45
2021/06/15 02:30:50;;;;;;;2.33;1.60;;;24.60;50.40;;;;;;5014959;28;20030;-45
2021/06/15 02:33:23;;;;;;;3.45;1.63;;;24.70;50.40;;;;;;5023477;28;20383;-45
2021/06/15 02:35:57;;;;;;;2.70;1.70;;;24.70;50.30;;;;;;5022863;28;20022;-45
2021/06/15 02:38:32;;;;;;;2.05;1.48;;;24.70;50.30;;;;;;5014007;28;20445;-45
2021/06/15 02:41:03;;;;;;;2.03;1.67;;;24.70;50.30;;;;;;5014950;28;20045;-45
2021/06/15 02:43:29;;;;;;;2.93;1.83;;;24.70;50.30;;;;;;5015005;28;20537;-45
2021/06/15 02:45:57;;;;;;;2.80;1.30;;;24.70;50.40;;;;;;5018373;28;20029;-45
2021/06/15 02:48:25;;;;;;;2.95;2.00;;;24.70;50.40;;;;;;5013698;28;20036;-45
2021/06/15 02:50:52;;;;;;;3.13;1.80;;;24.70;50.40;;;;;;5014245;28;20038;-45
2021/06/15 02:53:36;;;;;;;1.88;1.45;;;24.70;50.40;;;;;;5013410;28;20075;-45
2021/06/15 02:56:09;;;;;;;4.20;2.10;;;24.70;50.30;;;;;;5014211;28;20034;-46
2021/06/15 02:58:35;;;;;;;2.42;1.70;;;24.60;50.20;;;;;;5014297;28;20034;-48
2021/06/15 03:01:01;;;;;;;2.42;1.80;;;24.60;50.20;;;;;;5014008;28;20026;-45
2021/06/15 03:03:26;;;;;;;3.00;2.08;;;24.60;50.30;;;;;;5012690;28;20059;-50
2021/06/15 03:05:52;;;;;;;2.53;1.58;;;24.60;50.30;;;;;;5014056;28;20026;-47
2021/06/15 03:08:18;;;;;;;2.72;1.50;;;24.60;50.30;;;;;;5013199;28;20033;-50
2021/06/15 03:10:44;;;;;;;2.03;1.70;;;24.70;50.40;;;;;;5013745;28;20042;-45
2021/06/15 03:13:19;;;;;;;2.38;1.60;;;24.70;50.40;;;;;;5013337;28;20501;-46
2021/06/15 03:15:48;;;;;;;4.05;1.77;;;24.60;50.30;;;;;;5017316;28;20112;-47
2021/06/15 03:18:53;;;;;;;2.60;1.55;;;24.70;50.50;;;;;;5013066;28;20018;-44
2021/06/15 03:21:23;;;;;;;2.60;1.50;;;24.60;50.40;;;;;;5012046;28;20040;-47
2021/06/15 03:24:08;;;;;;;3.83;1.60;;;24.60;50.30;;;;;;5013962;28;20153;-50
2021/06/15 03:26:45;;;;;;;2.78;1.52;;;24.60;50.40;;;;;;5028689;28;20030;-47
2021/06/15 03:29:19;;;;;;;2.92;1.60;;;24.60;50.40;;;;;;5012656;28;20072;-46
2021/06/15 03:31:47;;;;;;;2.85;1.88;;;24.60;50.40;;;;;;5012357;28;20065;-49
2021/06/15 03:34:17;;;;;;;2.13;1.40;;;24.60;51.10;;;;;;5012514;28;20550;-47
2021/06/15 03:36:45;;;;;;;2.97;1.85;;;24.60;51.10;;;;;;5012461;28;20446;-47
2021/06/15 03:39:11;;;;;;;2.53;1.77;;;24.70;50.50;;;;;;5012625;28;20463;-45
2021/06/15 03:41:37;;;;;;;2.80;1.80;;;24.60;50.50;;;;;;5013381;28;20487;-51
2021/06/15 03:44:04;;;;;;;2.05;1.70;;;24.60;50.50;;;;;;5013569;28;20030;-45
2021/06/15 03:46:33;;;;;;;3.38;1.70;;;24.60;50.50;;;;;;5012919;28;20109;-50
2021/06/15 03:49:02;;;;;;;3.22;2.15;;;24.60;50.50;;;;;;5013336;28;20026;-49
2021/06/15 03:51:31;;;;;;;2.13;1.60;;;24.60;50.50;;;;;;5011911;28;20661;-46
2021/06/15 03:54:09;;;;;;;4.05;1.85;;;24.70;50.50;;;;;;5012819;28;20116;-50
2021/06/15 03:56:46;;;;;;;3.58;1.85;;;24.60;50.50;;;;;;5012945;28;20032;-49
2021/06/15 03:59:15;;;;;;;1.85;1.65;;;24.60;50.60;;;;;;5012382;28;20402;-47
2021/06/15 04:01:42;;;;;;;3.05;2.08;;;24.60;50.50;;;;;;5013109;28;20038;-48
2021/06/15 04:04:10;;;;;;;3.58;1.98;;;24.60;50.50;;;;;;5012615;28;20030;-48
2021/06/15 04:06:40;;;;;;;3.97;2.05;;;24.60;50.50;;;;;;5012951;28;20044;-48
2021/06/15 04:09:07;;;;;;;2.40;1.73;;;24.70;50.50;;;;;;5010499;28;20120;-50
2021/06/15 04:11:37;;;;;;;4.03;1.83;;;24.60;50.50;;;;;;5005589;28;20556;-47
2021/06/15 04:14:05;;;;;;;3.60;2.10;;;24.60;50.50;;;;;;5012898;28;20475;-47
2021/06/15 04:16:30;;;;;;;2.90;1.85;;;24.60;50.50;;;;;;5016867;28;20148;-49
2021/06/15 04:19:01;;;;;;;3.97;2.00;;;24.60;50.50;;;;;;5012783;28;20105;-46
2021/06/15 04:21:30;;;;;;;2.28;1.50;;;24.60;50.60;;;;;;5011926;28;20042;-46
2021/06/15 04:24:06;;;;;;;2.08;1.50;;;24.60;50.50;;;;;;5012525;28;20041;-45
2021/06/15 04:26:35;;;;;;;1.90;1.67;;;24.60;50.60;;;;;;5011643;28;20091;-46
2021/06/15 04:29:05;;;;;;;4.30;1.83;;;24.60;50.60;;;;;;5012283;28;20487;-47
2021/06/15 04:31:31;;;;;;;2.15;1.70;;;24.60;50.60;;;;;;5011320;28;20053;-45
2021/06/15 04:33:58;;;;;;;2.50;1.73;;;24.60;50.60;;;;;;5012738;28;20034;-46
2021/06/15 04:36:24;;;;;;;2.38;1.40;;;24.60;50.70;;;;;;5011279;28;20463;-47
2021/06/15 04:39:00;;;;;;;2.65;1.63;;;24.60;50.60;;;;;;5012441;28;20037;-45
2021/06/15 04:41:30;;;;;;;2.20;1.83;;;24.60;50.70;;;;;;5011736;28;20029;-47
2021/06/15 04:44:09;;;;;;;6.57;2.08;;;24.60;50.70;;;;;;5011942;28;20529;-46
2021/06/15 04:46:39;;;;;;;3.25;1.70;;;24.60;50.70;;;;;;5010980;28;20030;-48
2021/06/15 04:49:20;;;;;;;2.83;1.80;;;24.60;50.70;;;;;;5011661;28;20089;-45
2021/06/15 04:51:50;;;;;;;2.67;1.85;;;24.60;50.70;;;;;;5012129;28;20111;-45
2021/06/15 04:54:20;;;;;;;2.72;1.90;;;24.60;50.70;;;;;;5011734;28;20042;-48
2021/06/15 04:56:49;;;;;;;2.83;1.90;;;24.60;50.80;;;;;;5012368;28;20033;-51
2021/06/15 04:59:15;;;;;;;2.58;1.88;;;24.60;50.80;;;;;;5011025;28;20053;-45
2021/06/15 05:01:43;;;;;;;2.72;1.77;;;24.60;50.70;;;;;;5003042;28;20111;-49
2021/06/15 05:04:09;;;;;;;2.20;1.70;;;24.60;50.70;;;;;;5012096;28;20037;-46
2021/06/15 05:06:40;;;;;;;2.58;1.73;;;24.60;50.70;;;;;;5011246;28;20041;-47
2021/06/15 05:09:08;;;;;;;3.45;1.77;;;24.60;50.70;;;;;;5011502;28;20048;-45
2021/06/15 05:11:35;;;;;;;2.08;1.60;;;24.60;50.70;;;;;;5010671;28;20419;-45
2021/06/15 05:14:06;;;;;;;2.22;1.85;;;24.60;50.80;;;;;;5011739;28;20037;-47
2021/06/15 05:16:34;;;;;;;2.78;1.80;;;24.60;50.80;;;;;;5018123;28;20641;-47
2021/06/15 05:19:01;;;;;;;3.15;1.70;;;24.60;50.80;;;;;;5011906;28;20068;-45
2021/06/15 05:21:35;;;;;;;2.67;2.25;;;24.60;50.80;;;;;;5010469;28;20599;-46
2021/06/15 05:24:09;;;;;;;2.65;1.80;;;24.60;50.80;;;;;;5011982;28;20430;-47
2021/06/15 05:26:34;;;;;;;3.35;2.50;;;24.60;50.90;;;;;;5010567;28;20049;-46
2021/06/15 05:29:00;;;;;;;2.97;1.90;;;24.60;50.90;;;;;;5011889;28;20057;-49
2021/06/15 05:31:26;;;;;;;3.83;1.70;;;24.60;50.90;;;;;;5010734;28;20109;-45
2021/06/15 05:33:51;;;;;;;2.28;1.60;;;24.60;50.90;;;;;;5011275;28;20476;-46
2021/06/15 05:36:17;;;;;;;3.72;1.70;;;24.60;50.90;;;;;;5010743;28;20025;-46
2021/06/15 05:38:43;;;;;;;3.10;2.17;;;24.60;50.80;;;;;;5007427;28;21380;-45
2021/06/15 05:41:09;;;;;;;2.10;1.70;;;24.70;50.90;;;;;;5014281;28;20030;-49
2021/06/15 05:43:34;;;;;;;2.88;2.00;;;24.70;51.00;;;;;;5011754;28;20842;-47
2021/06/15 05:46:00;;;;;;;3.60;2.35;;;24.60;50.90;;;;;;5015746;28;20030;-47
2021/06/15 05:48:26;;;;;;;3.47;1.92;;;24.60;50.60;;;;;;5014031;28;20100;-45
2021/06/15 05:50:51;;;;;;;3.40;2.00;;;24.60;50.50;;;;;;5016144;28;20042;-45
2021/06/15 05:53:17;;;;;;;5.40;2.03;;;24.60;50.50;;;;;;5014538;28;20050;-47
2021/06/15 05:55:43;;;;;;;7.43;2.60;;;24.60;50.50;;;;;;5014299;28;20063;-47
2021/06/15 05:58:10;;;;;;;5.35;2.17;;;24.60;50.60;;;;;;5005181;28;20030;-47
2021/06/15 06:00:36;;;;;;;8.43;2.40;;;24.60;50.70;;;;;;4995253;28;20139;-45
2021/06/15 06:03:01;;;;;;;4.53;2.17;;;24.60;51.00;;;;;;4995806;28;20458;-44
2021/06/15 06:08:21;;;;;;;7.57;2.80;;;24.70;50.80;;;;;;4992817;28;20046;-50
2021/06/15 06:10:52;;;;;;;5.40;2.20;;;24.60;50.80;;;;;;5015512;28;20034;-46
2021/06/15 06:13:19;;;;;;;7.38;2.17;;;24.70;51.00;;;;;;5010385;28;20034;-45
2021/06/15 06:15:44;;;;;;;7.63;2.30;;;24.70;51.00;;;;;;5015227;28;20383;-46
2021/06/15 06:18:12;;;;;;;4.75;2.40;;;24.60;51.10;;;;;;5015789;28;20030;-45
2021/06/15 06:20:39;;;;;;;3.90;2.00;;;24.70;51.00;;;;;;5014877;28;20044;-45
2021/06/15 06:23:06;;;;;;;5.82;2.58;;;24.70;51.00;;;;;;5014936;28;20026;-45
2021/06/15 06:25:32;;;;;;;5.47;2.83;;;24.70;51.00;;;;;;5014549;28;20137;-47
2021/06/15 06:27:58;;;;;;;6.32;2.35;;;24.70;51.00;;;;;;5015026;28;20025;-45
2021/06/15 06:30:24;;;;;;;8.00;2.45;;;24.70;51.10;;;;;;5014633;28;20030;-44
2021/06/15 06:32:50;;;;;;;4.25;2.30;;;24.70;51.10;;;;;;5015334;28;20040;-45
2021/06/15 06:35:16;;;;;;;3.88;2.28;;;24.70;51.10;;;;;;5014134;28;20029;-45
2021/06/15 06:37:42;;;;;;;3.78;2.33;;;24.70;51.20;;;;;;5014568;28;20486;-46
2021/06/15 06:40:09;;;;;;;4.45;2.42;;;24.70;51.30;;;;;;5014317;28;20379;-49
2021/06/15 06:42:34;;;;;;;5.85;2.47;;;24.70;51.30;;;;;;5018132;28;20033;-48
2021/06/15 06:45:00;;;;;;;4.72;2.25;;;24.70;51.30;;;;;;5014775;28;20436;-46
2021/06/15 06:47:26;;;;;;;4.10;2.50;;;24.70;51.30;;;;;;5028300;28;20506;-45
2021/06/15 06:49:52;;;;;;;7.70;2.47;;;24.70;51.40;;;;;;5013988;28;20026;-45
2021/06/15 06:52:18;;;;;;;4.50;2.00;;;24.70;51.40;;;;;;5011708;28;20054;-46
2021/06/15 06:54:43;;;;;;;4.13;2.35;;;24.70;51.40;;;;;;5013750;28;20041;-46
2021/06/15 06:57:09;;;;;;;5.43;2.38;;;24.70;51.40;;;;;;5014739;28;20109;-46
2021/06/15 06:59:35;;;;;;;4.88;2.25;;;24.70;51.50;;;;;;5013891;28;20022;-49
2021/06/15 07:02:01;;;;;;;4.65;2.38;;;24.70;51.50;;;;;;5014599;28;20364;-49
2021/06/15 07:04:27;;;;;;;4.50;2.22;;;24.70;51.40;;;;;;5014089;28;20033;-47
2021/06/15 07:06:52;;;;;;;6.05;2.40;;;24.70;51.40;;;;;;5013456;28;20030;-46
2021/06/15 07:09:18;;;;;;;4.93;2.83;;;24.70;51.50;;;;;;5014057;28;20034;-45
2021/06/15 07:11:44;;;;;;;5.55;2.25;;;24.70;51.60;;;;;;5014203;28;20034;-47
2021/06/15 07:14:09;;;;;;;5.07;2.22;;;24.70;51.50;;;;;;5013669;28;20080;-49
2021/06/15 07:16:35;;;;;;;4.55;2.42;;;24.70;51.60;;;;;;5013686;28;20030;-48
2021/06/15 07:19:00;;;;;;;6.32;2.53;;;24.70;51.60;;;;;;5014405;28;20053;-49
2021/06/15 07:21:26;;;;;;;3.65;1.95;;;24.70;51.70;;;;;;5013434;28;20491;-47
2021/06/15 07:23:52;;;;;;;5.30;2.55;;;24.70;51.70;;;;;;5013955;28;20108;-50
2021/06/15 07:26:20;;;;;;;2.97;1.95;;;24.70;51.70;;;;;;5013564;28;20030;-45
2021/06/15 07:28:45;;;;;;;4.25;2.15;;;24.70;51.80;;;;;;5013977;28;20030;-46
2021/06/15 07:31:11;;;;;;;3.20;2.42;;;24.70;51.80;;;;;;5013781;28;20080;-46
2021/06/15 07:33:37;;;;;;;10.30;2.75;;;24.70;51.80;;;;;;5012098;28;20034;-47
2021/06/15 07:36:03;;;;;;;5.80;2.50;;;24.70;51.90;;;;;;5013444;28;20057;-45
2021/06/15 07:38:29;;;;;;;3.50;2.10;;;24.70;51.90;;;;;;5012499;28;20029;-46
2021/06/15 07:40:55;;;;;;;5.35;2.40;;;24.70;51.90;;;;;;5028150;28;20539;-48
2021/06/15 07:43:21;;;;;;;3.97;2.38;;;24.70;52.00;;;;;;5018833;28;20116;-45
2021/06/15 07:45:47;;;;;;;7.72;2.92;;;24.70;51.90;;;;;;5013111;28;20140;-47
2021/06/15 07:48:13;;;;;;;4.80;2.72;;;24.70;52.00;;;;;;5012965;28;20046;-47
2021/06/15 07:50:38;;;;;;;3.83;2.38;;;24.70;52.00;;;;;;5011848;28;20048;-46
2021/06/15 07:53:04;;;;;;;7.22;2.80;;;24.70;51.90;;;;;;5012603;28;20060;-49
2021/06/15 07:55:30;;;;;;;6.55;2.30;;;24.80;52.00;;;;;;5012206;28;20479;-47
2021/06/15 07:57:55;;;;;;;3.60;2.30;;;24.70;51.90;;;;;;5013049;28;20057;-45
2021/06/15 08:00:21;;;;;;;7.28;2.80;;;24.70;52.00;;;;;;5012294;28;20029;-48
2021/06/15 08:02:49;;;;;;;5.03;2.30;;;24.70;52.00;;;;;;5012712;28;20037;-46
2021/06/15 08:05:15;;;;;;;3.00;2.38;;;24.70;52.00;;;;;;5013037;28;20116;-47
2021/06/15 08:07:42;;;;;;;3.90;2.10;;;24.80;52.00;;;;;;5011288;28;20105;-50
2021/06/15 08:10:08;;;;;;;6.20;2.53;;;24.80;52.00;;;;;;5012444;28;20471;-46
2021/06/15 08:12:34;;;;;;;4.82;2.42;;;24.70;51.80;;;;;;5012943;28;20034;-45
2021/06/15 08:14:59;;;;;;;3.85;2.60;;;24.80;52.00;;;;;;5012485;28;20371;-46
2021/06/15 08:17:25;;;;;;;7.80;2.60;;;24.80;52.00;;;;;;5011459;28;20037;-47
2021/06/15 08:19:51;;;;;;;4.05;2.30;;;24.80;52.00;;;;;;5012710;28;20041;-47
2021/06/15 08:22:16;;;;;;;4.07;2.35;;;24.80;52.00;;;;;;5012172;28;20033;-45
2021/06/15 08:24:42;;;;;;;4.95;2.05;;;24.80;52.00;;;;;;5011577;28;20476;-45
2021/06/15 08:27:08;;;;;;;4.32;2.90;;;24.80;52.00;;;;;;5012320;28;20037;-45
2021/06/15 08:29:34;;;;;;;6.68;2.67;;;24.80;52.10;;;;;;5011619;28;20034;-47
2021/06/15 08:31:59;;;;;;;3.90;1.92;;;24.80;52.00;;;;;;5012196;28;20037;-45
2021/06/15 08:34:25;;;;;;;6.03;2.30;;;24.80;51.90;;;;;;5011373;28;20033;-47
2021/06/15 08:36:51;;;;;;;3.60;2.22;;;24.80;51.80;;;;;;5012037;28;20022;-46
2021/06/15 08:39:16;;;;;;;5.68;2.28;;;24.80;51.80;;;;;;5012384;28;20030;-46
2021/06/15 08:41:42;;;;;;;4.18;2.47;;;24.80;52.00;;;;;;5011405;28;20625;-45
2021/06/15 08:44:08;;;;;;;4.40;2.40;;;24.80;51.80;;;;;;5013254;28;20026;-47
2021/06/15 08:46:34;;;;;;;4.78;2.25;;;24.80;51.80;;;;;;5011731;28;20430;-47
2021/06/15 08:49:02;;;;;;;3.22;2.17;;;24.80;51.80;;;;;;5012644;28;20076;-45
2021/06/15 08:51:28;;;;;;;3.55;2.20;;;24.80;51.80;;;;;;5006818;28;20112;-47
2021/06/15 08:54:03;;;;;;;3.67;2.53;;;24.80;51.60;;;;;;5011414;28;20032;-46
2021/06/15 08:56:33;;;;;;;4.82;3.00;;;24.80;51.60;;;;;;5011792;28;20499;-46
2021/06/15 08:59:10;;;;;;;3.03;1.98;;;24.80;51.40;;;;;;5012556;28;20107;-46
2021/06/15 09:01:36;;;;;;;5.97;2.15;;;24.80;51.20;;;;;;5017064;28;20034;-47
2021/06/15 09:04:02;;;;;;;5.63;2.13;;;24.80;51.10;;;;;;5015416;28;20482;-46
2021/06/15 09:06:28;;;;;;;3.70;2.08;;;24.80;51.10;;;;;;5010179;28;20034;-47
2021/06/15 09:08:59;;;;;;;5.53;2.33;;;24.80;51.10;;;;;;5010270;28;20029;-45
2021/06/15 09:11:26;;;;;;;3.42;2.20;;;24.80;51.10;;;;;;5010442;28;20037;-46
2021/06/15 09:13:54;;;;;;;4.20;2.05;;;24.80;51.10;;;;;;5014521;28;20045;-47
2021/06/15 09:16:32;;;;;;;3.97;2.25;;;24.80;51.10;;;;;;5011309;28;20061;-47
2021/06/15 09:18:59;;;;;;;3.88;2.35;;;24.80;51.10;;;;;;5011265;28;20036;-49
2021/06/15 09:21:28;;;;;;;3.65;1.90;;;24.90;51.20;;;;;;5010641;28;20117;-46
2021/06/15 09:24:13;;;;;;;3.67;2.47;;;24.80;51.10;;;;;;5011754;28;20084;-46
2021/06/15 09:27:08;;;;;;;5.88;2.75;;;24.90;51.20;;;;;;5010588;28;20435;-51
2021/06/15 09:29:38;;;;;;;4.15;2.05;;;24.90;51.40;;;;;;5010244;28;20144;-46
2021/06/15 09:32:05;;;;;;;3.17;2.15;;;24.90;51.10;;;;;;5011768;28;20033;-48
2021/06/15 09:34:31;;;;;;;4.00;2.90;;;24.90;51.60;;;;;;5010576;28;20057;-47
2021/06/15 09:36:57;;;;;;;4.43;2.08;;;24.90;51.00;;;;;;5011547;28;20093;-45
2021/06/15 09:39:23;;;;;;;3.10;1.70;;;24.90;50.90;;;;;;5010892;28;20029;-44
2021/06/15 09:41:50;;;;;;;4.68;1.95;;;24.80;50.80;;;;;;5008324;28;20092;-47
2021/06/15 09:44:28;;;;;;;4.28;2.33;;;24.90;50.80;;;;;;5011875;28;20463;-45
2021/06/15 09:46:58;;;;;;;3.38;2.20;;;24.90;50.90;;;;;;5010924;28;20048;-46
2021/06/15 09:49:41;;;;;;;2.95;2.00;;;24.90;50.90;;;;;;5010563;28;20034;-45
2021/06/15 09:52:27;;;;;;;5.05;2.03;;;24.90;50.70;;;;;;5001056;28;20046;-49
2021/06/15 09:54:59;;;;;;;5.93;2.10;;;24.90;50.70;;;;;;5010521;28;20049;-49
2021/06/15 09:57:26;;;;;;;4.20;2.50;;;24.90;50.70;;;;;;5010992;28;20022;-47
2021/06/15 10:00:16;;;;;;;5.03;2.72;;;24.90;50.80;;;;;;5011548;28;20040;-49
2021/06/15 10:02:57;;;;;;;2.25;1.83;;;24.90;50.80;;;;;;5004930;28;20057;-47
2021/06/15 10:05:24;;;;;;;5.20;2.50;;;24.90;50.80;;;;;;5010287;28;20395;-47
2021/06/15 10:07:51;;;;;;;3.33;1.98;;;24.90;50.90;;;;;;5011005;28;20034;-47
2021/06/15 10:10:19;;;;;;;4.13;2.38;;;25.00;51.10;;;;;;5009741;28;20022;-49
2021/06/15 10:12:46;;;;;;;4.45;1.70;;;24.90;51.10;;;;;;5015936;28;20025;-46
2021/06/15 10:15:13;;;;;;;3.50;1.88;;;25.00;51.20;;;;;;5010497;28;20108;-50
2021/06/15 10:17:39;;;;;;;3.45;1.85;;;25.00;51.20;;;;;;5010241;28;20108;-44
2021/06/15 10:20:06;;;;;;;5.55;2.05;;;25.00;51.30;;;;;;5004051;28;20096;-45
2021/06/15 10:22:31;;;;;;;2.42;1.70;;;25.00;51.30;;;;;;5011394;28;20033;-46
2021/06/15 10:24:57;;;;;;;3.65;1.70;;;25.00;51.30;;;;;;5010480;28;20034;-47
2021/06/15 10:27:23;;;;;;;2.55;1.92;;;25.00;51.40;;;;;;5010771;28;20036;-45
2021/06/15 10:29:53;;;;;;;2.83;2.03;;;25.00;52.00;;;;;;5011558;28;20479;-50
2021/06/15 10:32:24;;;;;;;3.45;1.60;;;25.00;51.40;;;;;;5014549;28;20125;-46
2021/06/15 10:35:12;;;;;;;5.28;1.90;;;25.00;51.40;;;;;;5014586;28;20026;-47
2021/06/15 10:37:40;;;;;;;3.25;2.00;;;25.00;51.40;;;;;;5013741;28;20467;-50
2021/06/15 10:40:12;;;;;;;3.28;1.80;;;25.00;51.50;;;;;;5014020;28;20440;-47
2021/06/15 10:42:38;;;;;;;3.08;2.00;;;25.00;51.40;;;;;;5020630;28;20025;-44
2021/06/15 10:45:16;;;;;;;3.15;1.95;;;25.00;51.30;;;;;;5014918;28;20033;-46
2021/06/15 10:48:07;;;;;;;4.03;2.00;;;25.00;51.30;;;;;;5009512;28;20036;-49
2021/06/15 10:50:36;;;;;;;2.75;1.70;;;25.00;51.30;;;;;;5007657;28;20040;-46
2021/06/15 10:53:02;;;;;;;2.55;1.70;;;25.00;51.30;;;;;;5013772;28;20041;-49
2021/06/15 10:55:51;;;;;;;4.32;2.55;;;25.00;51.30;;;;;;5013634;28;20029;-45
2021/06/15 10:58:43;;;;;;;3.60;1.75;;;25.00;51.30;;;;;;5014293;28;20033;-45
2021/06/15 11:01:21;;;;;;;3.00;2.10;;;25.00;51.30;;;;;;4994754;28;20042;-50
2021/06/15 11:03:56;;;;;;;4.10;2.08;;;25.00;51.30;;;;;;5013199;28;20470;-48
2021/06/15 11:06:38;;;;;;;3.05;1.80;;;25.00;51.20;;;;;;5013336;28;20034;-48
2021/06/15 11:09:04;;;;;;;2.33;1.50;;;25.00;51.10;;;;;;5010836;28;20499;-48
2021/06/15 11:11:33;;;;;;;3.83;2.17;;;25.00;50.80;;;;;;5012220;28;20041;-44
2021/06/15 11:14:20;;;;;;;3.35;1.85;;;25.00;50.90;;;;;;5014587;28;20105;-48
2021/06/15 11:16:50;;;;;;;3.78;2.05;;;25.00;51.10;;;;;;5013180;28;20109;-47
2021/06/15 11:19:19;;;;;;;4.68;2.00;;;25.00;53.00;;;;;;5013442;28;20034;-47
2021/06/15 11:21:57;;;;;;;2.90;1.95;;;25.00;51.40;;;;;;5012813;28;20048;-49
2021/06/15 11:24:41;;;;;;;2.65;1.65;;;25.10;51.00;;;;;;5013531;28;20065;-47
2021/06/15 11:27:19;;;;;;;4.05;1.63;;;25.00;50.50;;;;;;5013184;28;20510;-48
2021/06/15 11:29:47;;;;;;;3.03;1.60;;;25.00;50.40;;;;;;5006644;28;20625;-46
2021/06/15 11:32:26;;;;;;;2.72;1.80;;;25.00;50.40;;;;;;5013218;28;20042;-46
2021/06/15 11:34:55;;;;;;;1.95;1.40;;;25.00;50.50;;;;;;5013318;28;20030;-48
2021/06/15 11:37:36;;;;;;;2.92;1.90;;;25.00;50.30;;;;;;5013188;28;20375;-47
2021/06/15 11:40:20;;;;;;;3.35;1.88;;;25.00;50.30;;;;;;5013072;28;20022;-47
2021/06/15 11:42:48;;;;;;;3.92;1.90;;;25.00;50.30;;;;;;5017097;28;20040;-50
2021/06/15 11:45:29;;;;;;;1.88;1.63;;;25.00;50.20;;;;;;5013472;28;20607;-49
2021/06/15 11:48:13;;;;;;;3.30;1.70;;;25.00;50.10;;;;;;5005066;28;20048;-48
2021/06/15 11:50:41;;;;;;;5.03;1.80;;;25.00;49.90;;;;;;5010496;28;20038;-47
2021/06/15 11:53:11;;;;;;;2.20;1.30;;;25.00;50.00;;;;;;5013034;28;20070;-47
2021/06/15 11:55:45;;;;;;;3.17;1.90;;;25.00;49.80;;;;;;5011864;28;20502;-44
2021/06/15 11:58:17;;;;;;;3.05;1.73;;;25.00;49.80;;;;;;5013472;28;20025;-49
2021/06/15 12:01:07;;;;;;;3.80;1.60;;;25.00;49.50;;;;;;5012059;28;20048;-47
2021/06/15 12:03:43;;;;;;;2.50;1.27;;;25.00;49.50;;;;;;5012173;28;20034;-46
2021/06/15 12:06:10;;;;;;;4.05;1.60;;;25.00;49.40;;;;;;5012841;28;20038;-46
2021/06/15 12:08:41;;;;;;;3.13;1.38;;;25.00;49.30;;;;;;5011837;28;20080;-50
2021/06/15 12:11:10;;;;;;;4.20;1.75;;;25.00;49.30;;;;;;5012109;28;20037;-48
2021/06/15 12:13:37;;;;;;;2.30;1.70;;;25.00;49.20;;;;;;5014487;28;20056;-50
2021/06/15 12:16:27;;;;;;;2.00;1.55;;;25.00;49.10;;;;;;5027571;28;20052;-48
2021/06/15 12:18:55;;;;;;;3.08;1.70;;;25.00;49.60;;;;;;5006524;28;20033;-50
2021/06/15 12:21:26;;;;;;;2.33;1.40;;;25.00;48.80;;;;;;5014066;28;20475;-46
2021/06/15 12:24:04;;;;;;;2.83;1.42;;;25.00;48.60;;;;;;5012302;28;20061;-45
2021/06/15 12:26:35;;;;;;;3.05;1.27;;;25.10;48.50;;;;;;5011338;28;20502;-46
2021/06/15 12:29:03;;;;;;;1.85;1.40;;;25.10;48.30;;;;;;5012679;28;20383;-51
2021/06/15 12:31:33;;;;;;;7.47;1.63;;;25.10;48.30;;;;;;5011556;28;20514;-47
2021/06/15 12:34:05;;;;;;;3.88;1.70;;;25.00;48.10;;;;;;5012494;28;20034;-45
2021/06/15 12:36:33;;;;;;;2.30;1.40;;;25.10;48.10;;;;;;5011246;28;20030;-47
2021/06/15 12:39:26;;;;;;;3.85;1.70;;;25.10;47.80;;;;;;5012106;28;20395;-50
2021/06/15 12:42:00;;;;;;;3.72;1.48;;;25.10;47.90;;;;;;5012297;28;20025;-50
2021/06/15 12:44:29;;;;;;;3.03;1.58;;;25.10;47.70;;;;;;5012862;28;20085;-48
2021/06/15 12:47:03;;;;;;;2.17;1.58;;;25.10;47.50;;;;;;5011686;28;20033;-46
2021/06/15 12:49:29;;;;;;;1.70;1.20;;;25.10;47.50;;;;;;5011737;28;20045;-47
2021/06/15 12:52:10;;;;;;;3.38;1.52;;;25.10;47.40;;;;;;5011712;28;20049;-46
2021/06/15 12:54:44;;;;;;;1.83;1.45;;;25.10;47.50;;;;;;5011162;28;20065;-50
2021/06/15 12:57:16;;;;;;;3.53;1.45;;;25.10;47.40;;;;;;5012043;28;20026;-46
2021/06/15 13:00:03;;;;;;;;;;;25.10;47.30;;;;;;5011706;28;20030;-48
2021/06/15 13:02:28;;;;;;;2.22;1.10;;;25.10;47.10;;;;;;5010903;28;20393;-46
2021/06/15 13:04:59;;;;;;;1.30;1.20;;;25.10;47.10;;;;;;5011217;28;20030;-46
2021/06/15 13:07:27;;;;;;;4.37;1.30;;;25.10;47.00;;;;;;5012001;28;20022;-53